Maggie, Kentucky
Current Conditions -  °F | °C
As of 4:58 PM on Tuesday 27 Jan 2015 (Local Time) from KHOP Reporting Station
Overcast Overcast  
Wind Chill: 32°   Ceiling: 3600
Heat Index: 37°   Visibility: 10mi
Dew Point: 29°   Wind: 7mph
Humidity: 72%   Direction: 350°N
Pressure: 30.16"   Gusts: NA
Location:  36.8031°N, 87.8159°W
Report Text: KHOP 272258Z AUTO 35006KT 10SM OVC036 03/M02 A3016 RMK AO2 SLP219 T00291017
Loading
Personal Weather Stations






























Interactive Weather Map New forecast layout! Learn more

10-Day Weather Forecast

Advertisements
Track Severe Weather on mobile